Time;durP1;ratioP1;P1;durP2;ratioP2;P2;SDS_P1;SDS_P2;PMS_P1;PMS_P2;Temp;Humidity;BMP_temperature;BMP_pressure;BME280_temperature;BME280_humidity;BME280_pressure;Samples;Min_cycle;Max_cycle;Signal;HPM_P1;HPM_P2
2024/03/08 00:00:14;;;;;;;48.17;38.37;;;1.20;90.70;;;;;;5076368;28;20205;-84
2024/03/08 00:02:40;;;;;;;46.37;36.03;;;1.20;90.80;;;;;;5076463;28;20221;-85
2024/03/08 00:05:08;;;;;;;41.67;34.00;;;1.20;90.80;;;;;;5094243;28;20201;-85
2024/03/08 00:07:37;;;;;;;50.13;35.53;;;1.10;90.90;;;;;;5094383;28;20163;-85
2024/03/08 00:10:04;;;;;;;41.90;35.60;;;1.10;90.90;;;;;;5094414;28;20178;-84
2024/03/08 00:12:30;;;;;;;45.23;36.63;;;1.00;90.90;;;;;;5093797;28;20217;-84
2024/03/08 00:14:55;;;;;;;48.70;35.87;;;1.00;90.90;;;;;;5076032;28;20182;-84
2024/03/08 00:17:27;;;;;;;47.43;37.13;;;1.00;91.00;;;;;;5094250;28;20175;-84
2024/03/08 00:19:53;;;;;;;45.60;36.87;;;1.00;91.00;;;;;;5094062;28;20211;-84
2024/03/08 00:22:18;;;;;;;45.23;34.90;;;1.00;91.00;;;;;;5094145;28;20651;-84
2024/03/08 00:24:45;;;;;;;42.10;35.63;;;0.90;91.10;;;;;;5094723;28;20188;-84
2024/03/08 00:27:11;;;;;;;47.27;36.20;;;0.90;91.10;;;;;;5075963;28;20174;-84
2024/03/08 00:29:38;;;;;;;43.77;35.60;;;0.90;91.20;;;;;;5093973;28;20178;-84
2024/03/08 00:32:04;;;;;;;48.57;38.23;;;0.90;91.20;;;;;;5075615;28;20576;-84
2024/03/08 00:34:30;;;;;;;48.13;38.40;;;0.90;91.10;;;;;;5094008;28;20200;-84
2024/03/08 00:36:55;;;;;;;46.03;35.77;;;0.90;91.20;;;;;;5075958;28;20201;-85
2024/03/08 00:39:21;;;;;;;43.17;29.30;;;0.90;91.10;;;;;;5093961;28;20177;-85
2024/03/08 00:41:47;;;;;;;46.57;31.63;;;0.90;91.10;;;;;;5094272;28;20213;-85
2024/03/08 00:44:13;;;;;;;42.37;32.93;;;0.80;91.10;;;;;;5075589;28;20174;-85
2024/03/08 00:46:38;;;;;;;46.70;34.63;;;0.90;91.10;;;;;;5093761;28;20253;-85
2024/03/08 00:49:04;;;;;;;45.93;37.67;;;0.90;91.00;;;;;;5075560;28;20178;-84
2024/03/08 00:51:29;;;;;;;45.93;36.43;;;0.80;91.00;;;;;;5093548;28;20170;-85
2024/03/08 00:53:55;;;;;;;43.70;36.50;;;0.80;91.00;;;;;;5075463;28;20178;-85
2024/03/08 00:56:20;;;;;;;45.90;37.80;;;0.80;91.00;;;;;;5093315;28;20257;-85
2024/03/08 00:58:46;;;;;;;44.27;35.10;;;0.80;91.00;;;;;;5093606;28;20171;-85
2024/03/08 01:01:15;;;;;;;47.40;36.90;;;0.80;91.00;;;;;;5075440;28;20287;-85
2024/03/08 01:03:43;;;;;;;41.80;30.37;;;0.80;91.00;;;;;;5075474;28;20548;-84
2024/03/08 01:06:08;;;;;;;41.43;29.07;;;0.80;91.00;;;;;;5093568;28;20170;-85
2024/03/08 01:08:34;;;;;;;41.23;30.70;;;0.80;90.90;;;;;;5075523;28;20222;-85
2024/03/08 01:10:59;;;;;;;42.27;30.60;;;0.80;90.90;;;;;;5093480;28;20173;-84
2024/03/08 01:13:25;;;;;;;39.00;29.80;;;0.80;90.90;;;;;;5093353;28;20205;-86
2024/03/08 01:15:51;;;;;;;47.97;30.43;;;0.80;90.90;;;;;;5093689;28;20167;-84
2024/03/08 01:18:17;;;;;;;39.67;30.00;;;0.80;90.90;;;;;;5093514;28;20177;-84
2024/03/08 01:20:42;;;;;;;40.50;29.90;;;0.70;90.90;;;;;;5093415;28;20196;-85
2024/03/08 01:23:07;;;;;;;38.63;29.73;;;0.70;90.90;;;;;;5093509;28;20619;-84
2024/03/08 01:25:34;;;;;;;46.60;29.27;;;0.70;90.90;;;;;;5095388;28;20653;-84
2024/03/08 01:27:59;;;;;;;37.77;28.50;;;0.70;90.90;;;;;;5097435;28;20206;-85
2024/03/08 01:30:25;;;;;;;45.23;32.43;;;0.70;91.00;;;;;;5079508;28;20185;-84
2024/03/08 01:32:50;;;;;;;42.17;30.80;;;0.70;91.00;;;;;;5097070;28;20669;-84
2024/03/08 01:35:16;;;;;;;40.20;29.03;;;0.70;91.10;;;;;;5097296;28;20180;-84
2024/03/08 01:37:42;;;;;;;46.77;31.20;;;0.70;91.10;;;;;;5097734;28;20251;-84
2024/03/08 01:40:08;;;;;;;45.07;29.63;;;0.70;91.10;;;;;;5097308;28;20246;-84
2024/03/08 01:42:37;;;;;;;43.17;29.33;;;0.70;91.10;;;;;;5079012;28;20195;-84
2024/03/08 01:45:05;;;;;;;41.37;28.83;;;0.70;91.20;;;;;;5097203;28;20166;-84
2024/03/08 01:47:32;;;;;;;39.93;28.33;;;0.70;91.20;;;;;;5097396;28;20256;-84
2024/03/08 01:49:59;;;;;;;37.53;27.40;;;0.70;91.20;;;;;;5097060;28;20173;-84
2024/03/08 01:52:26;;;;;;;44.20;30.67;;;0.70;91.20;;;;;;5097041;28;20222;-84
2024/03/08 01:54:52;;;;;;;43.57;30.73;;;0.70;91.20;;;;;;5078716;28;20186;-84
2024/03/08 01:57:17;;;;;;;43.33;29.40;;;0.70;91.10;;;;;;5078601;28;20260;-84
2024/03/08 01:59:43;;;;;;;38.07;28.97;;;0.60;91.20;;;;;;5097450;28;20180;-84
2024/03/08 02:02:11;;;;;;;42.30;29.23;;;0.60;91.20;;;;;;5096800;28;20186;-84
2024/03/08 02:04:38;;;;;;;42.00;34.57;;;0.60;91.20;;;;;;5078429;28;20297;-84
2024/03/08 02:07:05;;;;;;;43.77;36.53;;;0.60;91.30;;;;;;5078298;28;20726;-84
2024/03/08 02:09:31;;;;;;;42.20;35.40;;;0.60;91.30;;;;;;5096857;28;20300;-84
2024/03/08 02:11:57;;;;;;;45.37;35.73;;;0.60;91.30;;;;;;5078444;28;20256;-83
2024/03/08 02:14:23;;;;;;;43.03;37.07;;;0.60;91.30;;;;;;5078404;28;20177;-85
2024/03/08 02:16:50;;;;;;;42.37;36.37;;;0.60;91.30;;;;;;5096694;28;20175;-86
2024/03/08 02:19:16;;;;;;;52.47;37.30;;;0.60;91.30;;;;;;5096700;28;20544;-84
2024/03/08 02:21:41;;;;;;;49.30;37.37;;;0.60;91.30;;;;;;5096878;28;20288;-84
2024/03/08 02:24:07;;;;;;;50.73;38.73;;;0.50;91.30;;;;;;5078434;28;20173;-84
2024/03/08 02:26:32;;;;;;;45.57;36.97;;;0.60;91.30;;;;;;5096590;28;20200;-85
2024/03/08 02:28:58;;;;;;;47.33;37.27;;;0.60;91.30;;;;;;5096449;28;20547;-84
2024/03/08 02:31:23;;;;;;;51.67;38.10;;;0.50;91.20;;;;;;5096427;28;20177;-84
2024/03/08 02:33:49;;;;;;;43.50;36.73;;;0.50;91.20;;;;;;5077878;28;20200;-84
2024/03/08 02:36:16;;;;;;;43.40;38.13;;;0.40;91.20;;;;;;5077693;28;20563;-84
2024/03/08 02:38:41;;;;;;;50.93;38.30;;;0.40;91.20;;;;;;5078300;28;20624;-84
2024/03/08 02:41:08;;;;;;;46.90;36.90;;;0.40;91.30;;;;;;5077840;28;20207;-86
2024/03/08 02:43:34;;;;;;;46.20;37.33;;;0.40;91.30;;;;;;5096070;28;20280;-84
2024/03/08 02:45:59;;;;;;;42.13;29.73;;;0.30;91.30;;;;;;5096353;28;20266;-85
2024/03/08 02:48:25;;;;;;;47.07;31.77;;;0.30;91.30;;;;;;5078245;28;20189;-84
2024/03/08 02:50:51;;;;;;;48.80;29.57;;;0.30;91.30;;;;;;5096329;28;20228;-85
2024/03/08 02:53:18;;;;;;;50.50;36.13;;;0.30;91.40;;;;;;5077825;28;20749;-85
2024/03/08 02:55:44;;;;;;;48.67;37.37;;;0.30;91.40;;;;;;5077807;28;20184;-84
2024/03/08 02:58:10;;;;;;;47.30;37.70;;;0.20;91.50;;;;;;5077680;28;20180;-85
2024/03/08 03:00:36;;;;;;;50.00;37.17;;;0.20;91.50;;;;;;5077605;28;20221;-84
2024/03/08 03:03:02;;;;;;;47.67;36.57;;;0.10;91.60;;;;;;5095769;28;20209;-85
2024/03/08 03:05:32;;;;;;;50.83;36.60;;;0.10;91.60;;;;;;5095743;28;20172;-85
2024/03/08 03:07:58;;;;;;;47.57;37.20;;;0.10;91.70;;;;;;5077594;28;20266;-83
2024/03/08 03:10:24;;;;;;;50.87;37.20;;;0.10;91.70;;;;;;5096167;28;20186;-86
2024/03/08 03:12:49;;;;;;;48.17;35.10;;;0.10;91.80;;;;;;5077365;28;20702;-86
2024/03/08 03:15:18;;;;;;;50.70;38.57;;;0.10;91.80;;;;;;5077661;28;20190;-86
2024/03/08 03:17:47;;;;;;;52.97;37.60;;;0.10;91.80;;;;;;5095762;28;20170;-85
2024/03/08 03:20:14;;;;;;;44.50;35.77;;;0.10;91.80;;;;;;5077424;28;20292;-85
2024/03/08 03:22:47;;;;;;;46.93;35.90;;;0.10;91.80;;;;;;5095327;28;20196;-85
2024/03/08 03:25:12;;;;;;;41.43;30.50;;;0.10;91.90;;;;;;5077517;28;20213;-85
2024/03/08 03:27:40;;;;;;;46.47;30.43;;;0.10;91.90;;;;;;5095551;28;20260;-86
2024/03/08 03:30:21;;;;;;;50.20;32.53;;;0.20;91.90;;;;;;5077087;28;20222;-85
2024/03/08 03:32:50;;;;;;;53.20;31.73;;;0.20;91.90;;;;;;5077075;28;20213;-84
2024/03/08 03:35:17;;;;;;;46.40;30.93;;;0.10;91.90;;;;;;5077285;28;20666;-85
2024/03/08 03:37:50;;;;;;;49.27;32.40;;;0.10;91.90;;;;;;5077201;28;20276;-85
2024/03/08 03:40:18;;;;;;;45.43;33.10;;;0.10;91.90;;;;;;5076980;28;20201;-85
2024/03/08 03:42:45;;;;;;;49.27;33.00;;;0.10;91.90;;;;;;5095282;28;20192;-85
2024/03/08 03:45:11;;;;;;;48.60;32.77;;;0.10;91.90;;;;;;5095050;28;20171;-85
2024/03/08 03:47:37;;;;;;;42.27;30.60;;;0.10;92.00;;;;;;5094404;28;20545;-85
2024/03/08 03:50:04;;;;;;;50.23;31.50;;;0.10;92.10;;;;;;5095038;28;20225;-84
2024/03/08 03:52:30;;;;;;;44.43;31.37;;;0.10;92.10;;;;;;5076807;28;20624;-85
2024/03/08 03:54:56;;;;;;;49.20;33.03;;;0.10;92.10;;;;;;5095081;28;20182;-85
2024/03/08 03:57:22;;;;;;;45.13;31.30;;;0.10;92.10;;;;;;5076658;28;20219;-87
2024/03/08 03:59:48;;;;;;;53.00;32.63;;;0.10;92.10;;;;;;5094558;28;20227;-86
2024/03/08 04:02:14;;;;;;;48.67;31.50;;;0.10;92.10;;;;;;5076657;28;20676;-86
2024/03/08 04:04:40;;;;;;;46.70;32.37;;;0.10;92.10;;;;;;5076647;28;20264;-84
2024/03/08 04:07:06;;;;;;;44.17;31.87;;;0.00;92.10;;;;;;5076517;28;20269;-84
2024/03/08 04:09:31;;;;;;;42.20;30.57;;;0.00;92.10;;;;;;5094908;28;20184;-84
2024/03/08 04:11:57;;;;;;;48.63;30.60;;;0.00;92.10;;;;;;5094469;28;20272;-86
2024/03/08 04:14:23;;;;;;;45.70;31.30;;;0.00;92.20;;;;;;5094862;28;20179;-85
2024/03/08 04:16:49;;;;;;;45.50;30.33;;;0.00;92.30;;;;;;5094539;28;20246;-84
2024/03/08 04:19:14;;;;;;;52.00;33.80;;;0.00;92.30;;;;;;5094814;28;20695;-84
2024/03/08 04:21:40;;;;;;;46.77;30.77;;;0.00;92.40;;;;;;5076381;28;20225;-84
2024/03/08 04:24:05;;;;;;;47.13;31.67;;;0.00;92.40;;;;;;5094753;28;20265;-85
2024/03/08 04:26:31;;;;;;;50.70;32.63;;;0.00;92.40;;;;;;5094711;28;20659;-84
2024/03/08 04:28:57;;;;;;;53.93;40.20;;;0.00;92.40;;;;;;5094874;28;20231;-84
2024/03/08 04:31:22;;;;;;;55.30;39.90;;;0.00;92.50;;;;;;5094730;28;20184;-85
2024/03/08 04:33:48;;;;;;;53.63;37.60;;;0.00;92.50;;;;;;5075722;28;20182;-84
2024/03/08 04:36:14;;;;;;;52.63;38.43;;;-0.10;92.60;;;;;;5094013;28;20713;-84
2024/03/08 04:38:42;;;;;;;55.93;39.67;;;-0.10;92.60;;;;;;5093838;28;20168;-84
2024/03/08 04:41:09;;;;;;;56.53;42.17;;;-0.10;92.60;;;;;;5093715;28;20234;-84
2024/03/08 04:43:35;;;;;;;51.67;38.93;;;-0.10;92.60;;;;;;5093585;28;20247;-84
2024/03/08 04:46:03;;;;;;;60.23;36.90;;;-0.10;92.70;;;;;;5075519;28;20170;-84
2024/03/08 04:48:29;;;;;;;51.00;33.67;;;-0.20;92.70;;;;;;5093556;28;20680;-84
2024/03/08 04:50:55;;;;;;;53.20;34.03;;;-0.20;92.70;;;;;;5093503;28;20261;-84
2024/03/08 04:53:21;;;;;;;51.47;33.07;;;-0.20;92.70;;;;;;5075499;28;20643;-84
2024/03/08 04:55:46;;;;;;;48.57;32.30;;;-0.30;92.70;;;;;;5093666;28;20172;-84
2024/03/08 04:58:12;;;;;;;52.13;36.43;;;-0.30;92.70;;;;;;5093370;28;20183;-84
2024/03/08 05:00:37;;;;;;;54.17;37.50;;;-0.30;92.80;;;;;;5075114;28;20195;-84
2024/03/08 05:03:04;;;;;;;51.40;36.90;;;-0.30;92.90;;;;;;5075266;28;20340;-85
2024/03/08 05:05:30;;;;;;;57.83;36.93;;;-0.30;92.90;;;;;;5093288;28;20169;-84
2024/03/08 05:07:56;;;;;;;50.63;36.50;;;-0.30;92.90;;;;;;5093244;28;20171;-83
2024/03/08 05:10:21;;;;;;;53.43;35.20;;;-0.30;93.00;;;;;;5075213;28;20213;-84
2024/03/08 05:12:47;;;;;;;50.33;35.40;;;-0.30;93.00;;;;;;5075370;28;20227;-84
2024/03/08 05:15:12;;;;;;;52.83;35.30;;;-0.30;93.00;;;;;;5075180;28;20243;-84
2024/03/08 05:17:40;;;;;;;50.80;34.80;;;-0.30;93.00;;;;;;5093495;28;20181;-85
2024/03/08 05:20:08;;;;;;;55.33;35.13;;;-0.30;93.00;;;;;;5074987;28;20238;-84
2024/03/08 05:22:34;;;;;;;55.87;37.13;;;-0.30;93.10;;;;;;5093629;28;20201;-84
2024/03/08 05:24:59;;;;;;;46.60;34.80;;;-0.40;93.10;;;;;;5075094;28;20174;-84
2024/03/08 05:27:25;;;;;;;51.37;35.23;;;-0.40;93.10;;;;;;5093453;28;20207;-84
2024/03/08 05:29:50;;;;;;;55.53;36.30;;;-0.40;93.10;;;;;;5074888;28;20176;-85
2024/03/08 05:32:16;;;;;;;55.23;36.63;;;-0.40;93.10;;;;;;5074928;28;20202;-84
2024/03/08 05:34:42;;;;;;;55.03;37.73;;;-0.40;93.20;;;;;;5075012;28;20194;-85
2024/03/08 05:37:08;;;;;;;62.63;38.57;;;-0.40;93.20;;;;;;5093217;28;20166;-84
2024/03/08 05:39:33;;;;;;;54.10;32.53;;;-0.30;93.20;;;;;;5093091;28;20185;-85
2024/03/08 05:41:59;;;;;;;52.03;32.00;;;-0.30;93.20;;;;;;5093163;28;20683;-84
2024/03/08 05:44:28;;;;;;;55.23;33.97;;;-0.30;93.20;;;;;;5093010;28;20165;-84
2024/03/08 05:46:54;;;;;;;58.53;37.17;;;-0.30;93.20;;;;;;5092913;28;20164;-84
2024/03/08 05:49:19;;;;;;;52.47;37.27;;;-0.30;93.20;;;;;;5074920;28;20266;-85
2024/03/08 05:51:47;;;;;;;47.87;35.77;;;-0.30;93.20;;;;;;5074640;28;20208;-84
2024/03/08 05:54:13;;;;;;;56.00;36.27;;;-0.30;93.20;;;;;;5093324;28;20152;-82
2024/03/08 05:56:43;;;;;;;54.77;36.70;;;-0.30;93.20;;;;;;5074613;28;20175;-84
2024/03/08 05:59:09;;;;;;;48.67;36.43;;;-0.30;93.20;;;;;;5093212;28;20183;-84
2024/03/08 06:01:36;;;;;;;53.30;37.87;;;-0.30;93.20;;;;;;5074441;28;20199;-84
2024/03/08 06:04:03;;;;;;;53.57;38.57;;;-0.30;93.20;;;;;;5092824;28;20170;-84
2024/03/08 06:06:29;;;;;;;56.80;36.77;;;-0.30;93.20;;;;;;5074483;28;20221;-84
2024/03/08 06:08:58;;;;;;;57.77;37.30;;;-0.30;93.20;;;;;;5093432;28;20504;-84
2024/03/08 06:11:26;;;;;;;57.37;38.13;;;-0.30;93.20;;;;;;5093901;28;20170;-84
2024/03/08 06:13:55;;;;;;;53.93;36.23;;;-0.30;93.20;;;;;;5078093;28;20179;-85
2024/03/08 06:16:20;;;;;;;53.43;38.53;;;-0.30;93.20;;;;;;5096745;28;20167;-84
2024/03/08 06:18:46;;;;;;;50.30;31.67;;;-0.30;93.10;;;;;;5096728;28;20643;-84
2024/03/08 06:21:12;;;;;;;53.37;34.00;;;-0.20;93.20;;;;;;5078061;28;20198;-84
2024/03/08 06:23:38;;;;;;;54.90;34.33;;;-0.30;93.10;;;;;;5078141;28;20196;-84
2024/03/08 06:26:04;;;;;;;52.13;32.53;;;-0.30;93.10;;;;;;5096531;28;20220;-85
2024/03/08 06:28:32;;;;;;;50.63;33.47;;;-0.30;93.10;;;;;;5096253;28;20222;-84
2024/03/08 06:30:58;;;;;;;56.43;33.23;;;-0.40;93.00;;;;;;5096261;28;20198;-84
2024/03/08 06:33:26;;;;;;;55.77;34.73;;;-0.40;93.00;;;;;;5096052;28;20244;-84
2024/03/08 06:35:52;;;;;;;50.07;32.53;;;-0.30;93.00;;;;;;5095991;28;20167;-85
2024/03/08 06:38:18;;;;;;;50.60;33.67;;;-0.30;93.10;;;;;;5096193;28;20578;-84
2024/03/08 06:40:43;;;;;;;64.67;34.87;;;-0.20;93.10;;;;;;5077758;28;20668;-84
2024/03/08 06:43:11;;;;;;;62.17;35.07;;;-0.20;93.10;;;;;;5095765;28;20195;-84
2024/03/08 06:45:37;;;;;;;53.33;35.37;;;-0.10;93.20;;;;;;5077733;28;20167;-84
2024/03/08 06:48:03;;;;;;;56.77;35.90;;;0.00;93.10;;;;;;5095879;28;20305;-84
2024/03/08 06:50:29;;;;;;;55.90;34.37;;;0.00;93.10;;;;;;5095631;28;20671;-84
2024/03/08 06:52:54;;;;;;;52.63;35.53;;;0.00;93.10;;;;;;5095514;28;20240;-84
2024/03/08 06:55:20;;;;;;;58.83;33.73;;;0.00;93.10;;;;;;5095849;28;20211;-85
2024/03/08 06:57:47;;;;;;;60.60;35.37;;;0.00;93.00;;;;;;5078237;28;20208;-85
2024/03/08 07:00:18;;;;;;;50.57;33.13;;;0.10;93.00;;;;;;5077487;28;20287;-84
2024/03/08 07:02:48;;;;;;;61.90;35.17;;;0.10;93.00;;;;;;5095514;28;20711;-85
2024/03/08 07:05:14;;;;;;;55.50;34.83;;;0.10;93.00;;;;;;5095622;28;20149;-84
2024/03/08 07:07:41;;;;;;;54.47;33.83;;;0.20;93.00;;;;;;5095513;28;20675;-84
2024/03/08 07:10:10;;;;;;;48.90;33.07;;;0.20;93.00;;;;;;5095617;28;20183;-87
2024/03/08 07:12:37;;;;;;;56.43;34.17;;;0.20;92.90;;;;;;5095323;28;20202;-85
2024/03/08 07:15:03;;;;;;;45.00;31.53;;;0.20;92.90;;;;;;5077299;28;20280;-85
2024/03/08 07:17:28;;;;;;;53.80;34.97;;;0.30;92.80;;;;;;5076971;28;20271;-85
2024/03/08 07:19:54;;;;;;;54.80;34.27;;;0.30;92.70;;;;;;5095091;28;20652;-84
2024/03/08 07:22:19;;;;;;;50.30;34.57;;;0.30;92.60;;;;;;5094403;28;20189;-84
2024/03/08 07:27:29;;;;;;;53.77;36.63;;;0.40;92.40;;;;;;5095036;28;20166;-85
2024/03/08 07:29:55;;;;;;;55.23;36.97;;;0.40;92.20;;;;;;5076834;28;20178;-85
2024/03/08 07:32:21;;;;;;;57.63;38.57;;;0.50;92.20;;;;;;5094788;28;20186;-84
2024/03/08 07:34:50;;;;;;;57.93;38.40;;;0.50;92.10;;;;;;5094813;28;20195;-85
2024/03/08 07:37:16;;;;;;;54.43;36.00;;;0.60;91.90;;;;;;5094763;28;20234;-84
2024/03/08 07:39:42;;;;;;;51.17;36.87;;;0.60;91.80;;;;;;5076633;28;20181;-84
2024/03/08 07:42:07;;;;;;;51.43;37.27;;;0.70;91.70;;;;;;5094544;28;20721;-84
2024/03/08 07:44:33;;;;;;;45.17;29.77;;;0.70;91.60;;;;;;5077625;28;20198;-84
2024/03/08 07:46:59;;;;;;;47.73;32.73;;;0.80;91.40;;;;;;5094743;28;20169;-84
2024/03/08 07:49:24;;;;;;;49.13;33.33;;;0.80;91.10;;;;;;5076548;28;20177;-84
2024/03/08 07:51:50;;;;;;;47.80;35.00;;;0.90;90.90;;;;;;5076207;28;20209;-85
2024/03/08 07:54:15;;;;;;;45.97;30.37;;;0.90;90.70;;;;;;5076435;28;20190;-84
2024/03/08 07:56:42;;;;;;;50.53;33.30;;;1.00;90.70;;;;;;5094977;28;20178;-87
2024/03/08 07:59:07;;;;;;;40.60;28.77;;;1.10;90.50;;;;;;5076171;28;20181;-85
2024/03/08 08:01:33;;;;;;;50.53;33.70;;;1.10;90.30;;;;;;5094229;28;20200;-85
2024/03/08 08:04:01;;;;;;;44.13;34.40;;;1.20;90.10;;;;;;5095022;28;20562;-85
2024/03/08 08:06:27;;;;;;;46.20;35.80;;;1.30;90.00;;;;;;5076275;28;20257;-84
2024/03/08 08:08:52;;;;;;;49.33;36.30;;;1.30;89.60;;;;;;5076287;28;20612;-85
2024/03/08 08:11:18;;;;;;;47.57;35.20;;;1.40;89.60;;;;;;5076105;28;20182;-85
2024/03/08 08:13:43;;;;;;;56.27;33.43;;;1.50;89.50;;;;;;5094158;28;20210;-85
2024/03/08 08:16:10;;;;;;;50.53;37.77;;;1.50;89.20;;;;;;5094474;28;20231;-85
2024/03/08 08:18:36;;;;;;;49.10;37.13;;;1.60;89.00;;;;;;5076068;28;20230;-85
2024/03/08 08:21:02;;;;;;;50.07;37.33;;;1.70;88.70;;;;;;5075833;28;20207;-84
2024/03/08 08:23:28;;;;;;;42.37;34.30;;;1.80;88.50;;;;;;5075935;28;20187;-84
2024/03/08 08:25:54;;;;;;;48.03;36.63;;;1.80;88.50;;;;;;5094740;28;20166;-85
2024/03/08 08:28:21;;;;;;;45.97;36.53;;;1.90;88.50;;;;;;5075771;28;20257;-85
2024/03/08 08:30:46;;;;;;;42.80;33.40;;;2.00;88.10;;;;;;5094002;28;20214;-84
2024/03/08 08:33:13;;;;;;;45.23;35.07;;;2.10;87.60;;;;;;5093560;28;20194;-85
2024/03/08 08:35:38;;;;;;;47.87;35.93;;;2.20;87.30;;;;;;5075315;28;20182;-84
2024/03/08 08:38:09;;;;;;;43.17;35.40;;;2.30;87.20;;;;;;5093683;28;20669;-85
2024/03/08 08:40:38;;;;;;;52.10;37.67;;;2.30;87.00;;;;;;5093772;28;20668;-85
2024/03/08 08:43:07;;;;;;;49.37;37.07;;;2.40;86.80;;;;;;5093811;28;20179;-85
2024/03/08 08:45:33;;;;;;;40.00;33.40;;;2.50;86.50;;;;;;5094245;28;20163;-86
2024/03/08 08:48:01;;;;;;;42.80;35.30;;;2.70;86.20;;;;;;5093577;28;20174;-85
2024/03/08 08:50:28;;;;;;;45.03;37.53;;;2.70;85.60;;;;;;5093846;28;20646;-86
2024/03/08 08:52:54;;;;;;;43.50;35.60;;;2.80;85.10;;;;;;5075118;28;20750;-85
2024/03/08 08:55:25;;;;;;;42.97;35.17;;;2.90;85.10;;;;;;5075412;28;20178;-85
2024/03/08 08:57:51;;;;;;;40.77;34.70;;;2.90;84.40;;;;;;5093886;28;20178;-85
2024/03/08 09:00:19;;;;;;;40.37;34.87;;;3.10;85.00;;;;;;5075440;28;20234;-85
2024/03/08 09:02:45;;;;;;;41.73;34.70;;;3.20;84.60;;;;;;5075349;28;20200;-85
2024/03/08 09:05:16;;;;;;;43.33;33.87;;;3.20;84.30;;;;;;5093356;28;20167;-85
2024/03/08 09:07:45;;;;;;;42.63;37.03;;;3.20;83.60;;;;;;5093780;28;20218;-85
2024/03/08 09:10:14;;;;;;;45.80;39.37;;;3.30;83.80;;;;;;5075500;28;20176;-85
2024/03/08 09:12:40;;;;;;;52.80;39.43;;;3.30;83.10;;;;;;5075286;28;20241;-85
2024/03/08 09:15:13;;;;;;;45.30;40.40;;;3.60;83.90;;;;;;5093601;28;20180;-85
2024/03/08 09:17:39;;;;;;;49.10;40.10;;;3.60;83.20;;;;;;5075267;28;20168;-84
2024/03/08 09:20:10;;;;;;;48.30;38.03;;;3.70;82.00;;;;;;5075207;28;20210;-86
2024/03/08 09:22:35;;;;;;;40.77;30.43;;;3.80;81.70;;;;;;5093788;28;20199;-85
2024/03/08 09:25:01;;;;;;;36.27;29.10;;;3.90;82.20;;;;;;5093163;28;20163;-84
2024/03/08 09:27:28;;;;;;;36.80;29.03;;;4.00;81.20;;;;;;5093367;28;20176;-86
2024/03/08 09:29:54;;;;;;;39.27;33.00;;;4.00;80.60;;;;;;5075273;28;20221;-85
2024/03/08 09:32:20;;;;;;;40.83;33.13;;;4.00;80.30;;;;;;5093474;28;20185;-85
2024/03/08 09:34:45;;;;;;;38.40;32.03;;;4.20;80.90;;;;;;5075558;28;20591;-84
2024/03/08 09:37:11;;;;;;;38.20;32.87;;;4.30;80.90;;;;;;5094323;28;20200;-84
2024/03/08 09:39:36;;;;;;;41.47;31.83;;;4.30;79.80;;;;;;5094024;28;20253;-85
2024/03/08 09:42:02;;;;;;;36.17;31.33;;;4.40;80.10;;;;;;5075821;28;20322;-85
2024/03/08 09:44:28;;;;;;;36.87;31.00;;;4.50;79.80;;;;;;5094201;28;20222;-85
2024/03/08 09:46:55;;;;;;;34.37;29.73;;;4.60;78.70;;;;;;5077678;28;20231;-85
2024/03/08 09:49:21;;;;;;;38.57;30.00;;;4.60;78.00;;;;;;5097804;28;20205;-90
2024/03/08 09:51:47;;;;;;;39.23;31.97;;;4.70;78.20;;;;;;5097361;28;20228;-87
2024/03/08 09:54:13;;;;;;;34.37;30.53;;;4.80;78.20;;;;;;5097879;28;20291;-88
2024/03/08 09:56:44;;;;;;;38.87;32.60;;;5.00;77.60;;;;;;5079457;28;20222;-86
2024/03/08 10:01:55;;;;;;;45.60;34.70;;;5.10;76.40;;;;;;5097858;28;20210;-86
2024/03/08 10:04:22;;;;;;;40.53;33.97;;;5.30;76.10;;;;;;5079055;28;20175;-86
2024/03/08 10:06:48;;;;;;;39.47;33.07;;;5.30;75.90;;;;;;5097464;28;20198;-86
2024/03/08 10:09:14;;;;;;;34.53;29.80;;;5.50;76.60;;;;;;5097355;28;20207;-85
2024/03/08 10:11:43;;;;;;;36.97;32.17;;;5.80;76.50;;;;;;5078981;28;20613;-86
2024/03/08 10:14:11;;;;;;;37.77;33.70;;;5.80;75.20;;;;;;5079436;28;20182;-84
2024/03/08 10:16:39;;;;;;;40.03;34.90;;;5.80;74.20;;;;;;5098521;28;20171;-86
2024/03/08 10:19:05;;;;;;;36.60;32.70;;;5.90;74.70;;;;;;5078960;28;20178;-85
2024/03/08 10:21:32;;;;;;;40.00;35.77;;;6.10;74.40;;;;;;5096740;28;20715;-85
2024/03/08 10:23:59;;;;;;;39.40;35.20;;;6.20;72.20;;;;;;5097142;28;20173;-86
2024/03/08 10:26:25;;;;;;;43.70;36.77;;;6.20;71.20;;;;;;5097122;28;20169;-86
2024/03/08 10:28:52;;;;;;;42.30;37.27;;;6.40;71.80;;;;;;5079433;28;20646;-86
2024/03/08 10:31:19;;;;;;;38.87;34.83;;;6.40;70.90;;;;;;5097550;28;20166;-86
2024/03/08 10:33:45;;;;;;;36.70;32.83;;;6.50;70.60;;;;;;5096982;28;20177;-87
2024/03/08 10:36:13;;;;;;;39.03;35.03;;;6.40;69.20;;;;;;5078694;28;20206;-86
2024/03/08 10:38:41;;;;;;;37.80;33.90;;;6.50;69.60;;;;;;5078763;28;20193;-86
2024/03/08 10:41:09;;;;;;;38.37;34.30;;;6.70;69.70;;;;;;5096814;28;20201;-86
2024/03/08 10:44:08;;;;;;;35.10;31.63;;;6.70;68.30;;;;;;5078900;28;20191;-86
2024/03/08 10:46:53;;;;;;;40.27;35.50;;;6.70;68.30;;;;;;5079186;28;20220;-86
2024/03/08 10:49:25;;;;;;;41.20;35.87;;;6.60;67.20;;;;;;5078642;28;20170;-85
2024/03/08 10:51:52;;;;;;;36.90;32.80;;;6.80;69.30;;;;;;5096582;28;20678;-86
2024/03/08 10:54:19;;;;;;;36.87;32.83;;;6.80;67.20;;;;;;5096785;28;20190;-86
2024/03/08 10:56:46;;;;;;;40.07;35.63;;;6.80;67.10;;;;;;5078383;28;20170;-85
2024/03/08 10:59:13;;;;;;;38.60;34.53;;;6.90;69.20;;;;;;5097049;28;20167;-86
2024/03/08 11:01:40;;;;;;;39.77;35.57;;;7.00;67.90;;;;;;5096408;28;20285;-86
2024/03/08 11:04:05;;;;;;;38.17;34.33;;;7.20;67.60;;;;;;5097069;28;20212;-86
2024/03/08 11:06:37;;;;;;;40.77;36.43;;;7.30;66.20;;;;;;5096662;28;20167;-85
2024/03/08 11:09:13;;;;;;;38.57;34.40;;;7.30;65.80;;;;;;5096640;28;20638;-85
2024/03/08 11:11:42;;;;;;;37.97;33.50;;;7.30;63.10;;;;;;5096370;28;20243;-86
2024/03/08 11:14:44;;;;;;;39.27;34.53;;;7.40;66.50;;;;;;5078509;28;20531;-85
2024/03/08 11:17:09;;;;;;;40.33;36.13;;;7.40;64.40;;;;;;5095794;28;20196;-85
2024/03/08 11:19:35;;;;;;;38.80;34.50;;;7.60;65.90;;;;;;5095937;28;20171;-85
2024/03/08 11:22:03;;;;;;;37.67;33.80;;;7.80;65.20;;;;;;5096213;28;20256;-88
2024/03/08 11:24:38;;;;;;;40.50;36.30;;;7.50;64.00;;;;;;5077549;28;20653;-85
2024/03/08 11:27:04;;;;;;;37.57;33.70;;;7.60;64.10;;;;;;5096363;28;20614;-86
2024/03/08 11:29:36;;;;;;;37.57;33.67;;;7.50;64.20;;;;;;5096527;28;20171;-85
2024/03/08 11:32:18;;;;;;;36.87;32.93;;;7.60;62.90;;;;;;5096175;28;20272;-86
2024/03/08 11:34:49;;;;;;;34.20;30.80;;;7.80;60.80;;;;;;5095924;28;20663;-87
2024/03/08 11:37:20;;;;;;;37.53;33.43;;;7.80;60.00;;;;;;5095824;28;20167;-86
2024/03/08 11:39:50;;;;;;;41.63;34.10;;;7.90;60.10;;;;;;5095890;28;20155;-86
2024/03/08 11:42:17;;;;;;;51.67;47.03;;;8.00;58.90;;;;;;5095495;28;20202;-85
2024/03/08 11:44:47;;;;;;;52.60;47.90;;;8.10;60.90;;;;;;5096157;28;20618;-86
2024/03/08 11:47:14;;;;;;;56.03;50.73;;;8.20;59.30;;;;;;5078628;28;20220;-87
2024/03/08 11:49:44;;;;;;;50.40;45.80;;;8.10;60.60;;;;;;5095599;28;20297;-86
2024/03/08 11:52:12;;;;;;;54.90;50.03;;;8.30;59.50;;;;;;5095499;28;20205;-86
2024/03/08 11:54:39;;;;;;;49.60;45.10;;;8.30;57.60;;;;;;5095504;28;20166;-86
2024/03/08 11:57:05;;;;;;;48.00;43.57;;;8.30;60.20;;;;;;5095310;28;20177;-85
2024/03/08 11:59:31;;;;;;;49.60;45.13;;;8.30;57.40;;;;;;5095553;28;20175;-87
2024/03/08 12:02:01;;;;;;;49.30;44.67;;;8.30;58.90;;;;;;5076968;28;20708;-85
2024/03/08 12:04:27;;;;;;;49.00;44.57;;;8.40;57.80;;;;;;5077245;28;20703;-87
2024/03/08 12:06:53;;;;;;;50.43;45.90;;;8.40;57.10;;;;;;5095283;28;20198;-85
2024/03/08 12:09:19;;;;;;;50.47;46.00;;;8.50;58.70;;;;;;5095163;28;20178;-85
2024/03/08 12:11:48;;;;;;;51.00;46.33;;;8.40;58.00;;;;;;5095200;28;20197;-85
2024/03/08 12:14:14;;;;;;;46.73;42.43;;;8.50;58.30;;;;;;5095181;28;20167;-86
2024/03/08 12:16:42;;;;;;;49.97;45.43;;;8.40;57.90;;;;;;5076920;28;20174;-86
2024/03/08 12:19:09;;;;;;;45.27;41.40;;;8.30;58.60;;;;;;5095334;28;20163;-85
2024/03/08 12:21:36;;;;;;;49.13;44.63;;;8.30;56.90;;;;;;5076780;28;20228;-86
2024/03/08 12:24:08;;;;;;;50.67;45.80;;;8.50;56.90;;;;;;5077098;28;20616;-86
2024/03/08 12:26:36;;;;;;;49.47;44.93;;;8.60;57.80;;;;;;5077082;28;20174;-85
2024/03/08 12:29:19;;;;;;;47.10;42.93;;;8.70;58.70;;;;;;5095661;28;20171;-88
2024/03/08 12:31:53;;;;;;;48.73;44.33;;;8.60;57.10;;;;;;5083054;28;20233;-92
2024/03/08 12:34:18;;;;;;;47.27;42.77;;;8.60;58.50;;;;;;5093018;28;20201;-93
2024/03/08 12:36:50;;;;;;;49.63;45.10;;;8.70;58.00;;;;;;5089387;28;20182;-92
2024/03/08 12:39:26;;;;;;;47.50;43.17;;;8.70;57.50;;;;;;5083837;28;20174;-93